Time;durP1;ratioP1;P1;durP2;ratioP2;P2;SDS_P1;SDS_P2;PMS_P1;PMS_P2;Temp;Humidity;BMP_temperature;BMP_pressure;BME280_temperature;BME280_humidity;BME280_pressure;Samples;Min_cycle;Max_cycle;Signal;HPM_P1;HPM_P2
2022/12/11 00:02:06;;;;;;;20.07;14.63;;;3.70;99.90;;;;;;5073394;28;20212;-55
2022/12/11 00:04:33;;;;;;;20.83;15.93;;;3.70;99.90;;;;;;5073280;28;20236;-56
2022/12/11 00:06:59;;;;;;;21.03;14.83;;;3.70;99.90;;;;;;5073124;28;20205;-57
2022/12/11 00:09:26;;;;;;;20.67;15.50;;;3.70;99.90;;;;;;5072742;28;20228;-56
2022/12/11 00:11:53;;;;;;;19.73;15.27;;;3.70;99.90;;;;;;5073451;28;20208;-56
2022/12/11 00:14:20;;;;;;;20.43;14.70;;;3.80;99.90;;;;;;5073216;28;20255;-57
2022/12/11 00:16:49;;;;;;;19.53;14.67;;;3.80;99.90;;;;;;5073198;28;20223;-56
2022/12/11 00:19:16;;;;;;;21.27;15.63;;;3.80;99.90;;;;;;5072504;28;20209;-56
2022/12/11 00:21:42;;;;;;;19.77;14.27;;;3.80;99.90;;;;;;5072765;28;20201;-56
2022/12/11 00:24:09;;;;;;;20.07;14.40;;;3.70;99.90;;;;;;5073095;28;20239;-57
2022/12/11 00:26:36;;;;;;;18.73;14.20;;;3.70;99.90;;;;;;5072816;28;20212;-56
2022/12/11 00:29:03;;;;;;;20.90;15.33;;;3.60;99.90;;;;;;5072154;28;20216;-56
2022/12/11 00:31:30;;;;;;;21.37;14.90;;;3.50;99.90;;;;;;5072599;28;20321;-56
2022/12/11 00:34:01;;;;;;;17.70;13.27;;;3.40;99.90;;;;;;5072375;28;20320;-56
2022/12/11 00:36:28;;;;;;;19.53;14.07;;;3.10;99.90;;;;;;5072673;28;20232;-56
2022/12/11 00:38:55;;;;;;;19.57;14.40;;;3.10;99.90;;;;;;5072194;28;20718;-56
2022/12/11 00:41:22;;;;;;;19.20;13.13;;;3.00;99.90;;;;;;5072784;28;20552;-56
2022/12/11 00:43:49;;;;;;;16.37;12.97;;;3.00;99.90;;;;;;5072681;28;20228;-56
2022/12/11 00:46:16;;;;;;;17.00;12.47;;;3.10;99.90;;;;;;5072494;28;20751;-56
2022/12/11 00:48:43;;;;;;;16.10;12.17;;;3.00;99.90;;;;;;5072175;28;20224;-56
2022/12/11 00:51:11;;;;;;;16.03;12.40;;;2.80;99.90;;;;;;5072391;28;20229;-57
2022/12/11 00:53:38;;;;;;;16.23;12.17;;;2.80;99.90;;;;;;5072595;28;20275;-56
2022/12/11 00:56:11;;;;;;;10.90;7.73;;;2.90;99.90;;;;;;5072404;28;20588;-56
2022/12/11 00:58:38;;;;;;;8.57;6.97;;;2.80;99.90;;;;;;5071689;28;20586;-56
2022/12/11 01:01:07;;;;;;;11.40;8.70;;;2.60;99.90;;;;;;5072370;28;20670;-56
2022/12/11 01:03:33;;;;;;;13.90;9.47;;;2.50;99.90;;;;;;5073216;28;20232;-56
2022/12/11 01:06:00;;;;;;;11.53;7.80;;;2.50;99.90;;;;;;5072869;28;20208;-56
2022/12/11 01:08:29;;;;;;;9.80;7.33;;;2.40;99.90;;;;;;5072459;28;20201;-55
2022/12/11 01:11:01;;;;;;;12.40;9.10;;;2.30;99.90;;;;;;5072306;28;20718;-55
2022/12/11 01:13:28;;;;;;;12.47;8.00;;;2.20;99.90;;;;;;5072374;28;20229;-55
2022/12/11 01:15:55;;;;;;;12.03;9.17;;;2.20;99.90;;;;;;5071965;28;20205;-55
2022/12/11 01:18:21;;;;;;;14.23;10.60;;;2.30;99.90;;;;;;5072258;28;20589;-56
2022/12/11 01:20:48;;;;;;;13.37;9.40;;;2.30;99.90;;;;;;5071831;28;20595;-56
2022/12/11 01:23:15;;;;;;;12.73;9.33;;;2.40;99.90;;;;;;5071941;28;20205;-56
2022/12/11 01:25:44;;;;;;;10.53;8.60;;;2.50;99.90;;;;;;5071980;28;20209;-56
2022/12/11 01:28:10;;;;;;;9.50;7.33;;;2.50;99.90;;;;;;5071908;28;20307;-56
2022/12/11 01:30:40;;;;;;;9.73;7.27;;;2.50;99.90;;;;;;5071660;28;20231;-56
2022/12/11 01:33:07;;;;;;;11.87;8.60;;;2.40;99.90;;;;;;5072212;28;20213;-55
2022/12/11 01:35:34;;;;;;;9.63;7.80;;;2.50;99.90;;;;;;5075793;28;20228;-56
2022/12/11 01:38:01;;;;;;;10.57;8.07;;;2.60;99.90;;;;;;5075595;28;20209;-56
2022/12/11 01:40:28;;;;;;;9.97;6.80;;;2.60;99.90;;;;;;5075342;28;20237;-55
2022/12/11 01:42:56;;;;;;;8.43;7.47;;;2.50;99.90;;;;;;5075688;28;20209;-56
2022/12/11 01:45:32;;;;;;;8.00;6.17;;;2.60;99.90;;;;;;5075858;28;20229;-56
2022/12/11 01:48:03;;;;;;;7.60;5.87;;;2.60;99.90;;;;;;5075858;28;20204;-55
2022/12/11 01:50:33;;;;;;;7.37;5.50;;;2.50;99.90;;;;;;5075637;28;20445;-56
2022/12/11 01:53:01;;;;;;;7.47;6.17;;;2.30;99.90;;;;;;5075713;28;20244;-56
2022/12/11 01:55:28;;;;;;;8.87;6.00;;;2.30;99.90;;;;;;5075371;28;20229;-56
2022/12/11 01:57:56;;;;;;;8.60;6.83;;;2.40;99.90;;;;;;5075584;28;20205;-56
2022/12/11 02:00:23;;;;;;;7.83;6.07;;;2.50;99.90;;;;;;5075069;28;20743;-56
2022/12/11 02:02:50;;;;;;;7.93;6.40;;;2.70;99.90;;;;;;5075332;28;20252;-56
2022/12/11 02:05:16;;;;;;;7.50;5.97;;;2.80;99.90;;;;;;5075444;28;20723;-56
2022/12/11 02:07:48;;;;;;;7.50;6.33;;;3.00;99.90;;;;;;5075189;28;20584;-56
2022/12/11 02:10:15;;;;;;;8.27;6.13;;;3.00;99.90;;;;;;5074916;28;20225;-56
2022/12/11 02:12:51;;;;;;;8.70;5.90;;;2.90;99.90;;;;;;5075611;28;20209;-56
2022/12/11 02:15:26;;;;;;;10.03;6.73;;;2.90;99.90;;;;;;5075418;28;20233;-56
2022/12/11 02:18:00;;;;;;;8.60;6.70;;;3.00;99.90;;;;;;5075193;28;20215;-57
2022/12/11 02:20:33;;;;;;;8.10;6.73;;;3.00;99.90;;;;;;5074703;28;20688;-56
2022/12/11 02:23:35;;;;;;;9.37;7.10;;;3.10;99.90;;;;;;5075421;28;20213;-56
2022/12/11 02:26:13;;;;;;;8.70;6.50;;;3.20;99.90;;;;;;5075170;28;20747;-56
2022/12/11 02:28:45;;;;;;;9.40;7.30;;;3.30;99.90;;;;;;5074442;28;20205;-56
2022/12/11 02:31:16;;;;;;;8.90;7.07;;;3.50;99.90;;;;;;5075132;28;20225;-56
2022/12/11 02:33:49;;;;;;;9.50;7.80;;;3.60;99.90;;;;;;5074803;28;20709;-56
2022/12/11 02:36:18;;;;;;;10.23;7.73;;;3.60;99.90;;;;;;5074963;28;20201;-56
2022/12/11 02:38:49;;;;;;;11.33;8.60;;;3.70;99.90;;;;;;5074390;28;20212;-56
2022/12/11 02:41:18;;;;;;;9.60;7.67;;;3.70;99.90;;;;;;5074760;28;20572;-56
2022/12/11 02:43:49;;;;;;;11.43;8.50;;;3.80;99.90;;;;;;5074934;28;20602;-56
2022/12/11 02:46:19;;;;;;;10.13;7.97;;;3.90;99.90;;;;;;5074218;28;20208;-56
2022/12/11 02:48:50;;;;;;;11.33;8.03;;;3.80;99.90;;;;;;5074359;28;20216;-56
2022/12/11 02:51:21;;;;;;;9.30;7.73;;;3.70;99.90;;;;;;5074703;28;20221;-56
2022/12/11 02:53:50;;;;;;;9.63;7.77;;;3.70;99.90;;;;;;5074604;28;20229;-56
2022/12/11 02:56:24;;;;;;;9.67;7.70;;;3.70;99.90;;;;;;5074638;28;20227;-56
2022/12/11 02:58:57;;;;;;;9.73;7.57;;;3.70;99.90;;;;;;5074320;28;20209;-56
2022/12/11 03:01:25;;;;;;;11.13;7.97;;;3.70;99.90;;;;;;5074658;28;20197;-56
2022/12/11 03:03:52;;;;;;;10.20;7.77;;;3.70;99.90;;;;;;5074162;28;20739;-56
2022/12/11 03:06:24;;;;;;;9.93;7.97;;;3.80;99.90;;;;;;5074328;28;20231;-56
2022/12/11 03:08:52;;;;;;;10.00;7.70;;;3.70;99.90;;;;;;5074164;28;20205;-56
2022/12/11 03:11:18;;;;;;;10.80;8.20;;;3.70;99.90;;;;;;5074355;28;20229;-56
2022/12/11 03:13:45;;;;;;;10.07;8.07;;;3.70;99.90;;;;;;5074584;28;20247;-56
2022/12/11 03:16:21;;;;;;;9.50;8.03;;;3.80;99.90;;;;;;5074189;28;20205;-56
2022/12/11 03:18:56;;;;;;;13.27;8.67;;;3.80;99.90;;;;;;5074012;28;20298;-57
2022/12/11 03:21:28;;;;;;;10.70;7.97;;;3.70;99.90;;;;;;5073910;28;20664;-56
2022/12/11 03:24:01;;;;;;;10.13;8.17;;;3.70;99.90;;;;;;5074033;28;20644;-56
2022/12/11 03:26:32;;;;;;;11.23;8.30;;;3.70;99.90;;;;;;5073992;28;20201;-56
2022/12/11 03:29:02;;;;;;;11.40;8.73;;;3.70;99.90;;;;;;5073408;28;20209;-56
2022/12/11 03:31:37;;;;;;;11.23;8.33;;;3.80;99.90;;;;;;5074162;28;20594;-56
2022/12/11 03:34:13;;;;;;;10.33;8.10;;;3.80;99.90;;;;;;5073722;28;20773;-56
2022/12/11 03:36:42;;;;;;;10.77;8.97;;;3.80;99.90;;;;;;5073947;28;20219;-56
2022/12/11 03:39:12;;;;;;;10.60;8.53;;;3.80;99.90;;;;;;5073303;28;20215;-56
2022/12/11 03:41:40;;;;;;;11.60;8.70;;;3.80;99.90;;;;;;5073586;28;20247;-56
2022/12/11 03:44:08;;;;;;;11.00;8.50;;;3.90;99.90;;;;;;5073723;28;20231;-56
2022/12/11 03:46:39;;;;;;;11.57;8.70;;;3.80;99.90;;;;;;5073930;28;20309;-56
2022/12/11 03:49:14;;;;;;;10.63;8.40;;;3.80;99.90;;;;;;5073672;28;20204;-56
2022/12/11 03:51:43;;;;;;;10.67;8.47;;;3.80;99.90;;;;;;5073731;28;20228;-56
2022/12/11 03:54:11;;;;;;;11.40;8.33;;;3.80;99.90;;;;;;5073846;28;20235;-56
2022/12/11 03:56:39;;;;;;;11.23;8.90;;;3.80;99.90;;;;;;5073089;28;20205;-56
2022/12/11 03:59:06;;;;;;;10.90;8.87;;;3.70;99.90;;;;;;5073173;28;20231;-56
2022/12/11 04:01:33;;;;;;;12.63;9.63;;;3.70;99.90;;;;;;5073419;28;20201;-56
2022/12/11 04:04:01;;;;;;;11.20;8.53;;;3.60;99.90;;;;;;5073865;28;20308;-56
2022/12/11 04:06:28;;;;;;;12.40;8.67;;;3.60;99.90;;;;;;5073741;28;20240;-55
2022/12/11 04:08:55;;;;;;;11.63;8.70;;;3.60;99.90;;;;;;5073347;28;20633;-56
2022/12/11 04:11:34;;;;;;;11.90;9.40;;;3.40;99.90;;;;;;5074092;28;20229;-57
2022/12/11 04:16:46;;;;;;;12.67;9.50;;;3.30;99.90;;;;;;5075076;28;20274;-56
2022/12/11 04:24:55;;;;;;;11.90;9.00;;;3.20;99.90;;;;;;5074073;28;20251;-56
2022/12/11 04:30:09;;;;;;;12.93;9.47;;;3.00;99.90;;;;;;5074030;28;20341;-56
2022/12/11 04:32:36;;;;;;;16.17;10.47;;;2.70;99.90;;;;;;5074863;28;20803;-56
2022/12/11 04:35:06;;;;;;;14.00;10.80;;;2.50;99.90;;;;;;5075438;28;20239;-56
2022/12/11 04:37:32;;;;;;;15.10;10.67;;;2.60;99.90;;;;;;5077746;28;20205;-56
2022/12/11 04:39:59;;;;;;;14.63;10.63;;;2.80;99.90;;;;;;5076221;28;20213;-57
2022/12/11 04:42:26;;;;;;;15.73;11.63;;;2.80;99.90;;;;;;5076550;28;20208;-57
2022/12/11 04:44:53;;;;;;;14.57;11.43;;;2.80;99.90;;;;;;5075983;28;20227;-55
2022/12/11 04:47:20;;;;;;;16.13;11.53;;;2.80;99.90;;;;;;5076034;28;20662;-56
2022/12/11 04:49:47;;;;;;;14.63;10.90;;;2.90;99.90;;;;;;5075737;28;20681;-56
2022/12/11 04:52:15;;;;;;;14.67;11.57;;;3.00;99.90;;;;;;5075013;28;20314;-55
2022/12/11 04:54:42;;;;;;;16.37;12.37;;;3.10;99.90;;;;;;5074216;28;20239;-56
2022/12/11 04:57:09;;;;;;;16.50;11.77;;;3.00;99.90;;;;;;5074332;28;20223;-55
2022/12/11 04:59:36;;;;;;;17.97;13.23;;;3.10;99.90;;;;;;5073912;28;20288;-56
2022/12/11 05:02:03;;;;;;;16.00;12.10;;;3.30;99.90;;;;;;5073661;28;20197;-55
2022/12/11 05:04:31;;;;;;;17.30;12.53;;;3.40;99.90;;;;;;5073466;28;20701;-56
2022/12/11 05:06:58;;;;;;;17.33;12.93;;;3.50;99.90;;;;;;5072922;28;20212;-55
2022/12/11 05:09:27;;;;;;;16.93;13.03;;;3.50;99.90;;;;;;5072052;28;20208;-56
2022/12/11 05:11:54;;;;;;;17.10;12.60;;;3.50;99.90;;;;;;5072354;28;20776;-55
2022/12/11 05:14:21;;;;;;;16.47;11.90;;;3.40;99.90;;;;;;5072223;28;20229;-55
2022/12/11 05:16:48;;;;;;;17.23;12.77;;;3.50;99.90;;;;;;5071897;28;20627;-55
2022/12/11 05:19:15;;;;;;;16.33;12.23;;;3.40;99.90;;;;;;5071861;28;20217;-55
2022/12/11 05:21:42;;;;;;;19.17;12.93;;;3.30;99.90;;;;;;5072166;28;20208;-56
2022/12/11 05:24:09;;;;;;;19.50;14.83;;;3.30;99.90;;;;;;5072255;28;20220;-55
2022/12/11 05:26:37;;;;;;;16.10;12.57;;;3.30;99.90;;;;;;5072370;28;20207;-55
2022/12/11 05:29:04;;;;;;;18.33;13.13;;;3.30;99.90;;;;;;5071511;28;20201;-55
2022/12/11 05:31:31;;;;;;;17.17;13.33;;;3.20;99.90;;;;;;5071777;28;20232;-56
2022/12/11 05:33:58;;;;;;;17.33;13.73;;;3.10;99.90;;;;;;5071651;28;20688;-56
2022/12/11 05:36:27;;;;;;;19.17;14.63;;;3.00;99.90;;;;;;5072033;28;20208;-56
2022/12/11 05:38:55;;;;;;;18.90;14.40;;;3.00;99.90;;;;;;5071850;28;20284;-57
2022/12/11 05:41:24;;;;;;;18.93;14.33;;;3.10;99.90;;;;;;5072070;28;20709;-56
2022/12/11 05:43:52;;;;;;;18.43;13.87;;;3.20;99.90;;;;;;5071808;28;20229;-56
2022/12/11 05:46:21;;;;;;;18.67;14.33;;;3.20;99.90;;;;;;5072060;28;20205;-56
2022/12/11 05:48:50;;;;;;;17.63;13.97;;;3.30;99.90;;;;;;5072173;28;20748;-56
2022/12/11 05:51:18;;;;;;;19.93;14.40;;;3.20;99.90;;;;;;5071559;28;20221;-56
2022/12/11 05:53:46;;;;;;;21.00;14.40;;;3.00;99.90;;;;;;5072010;28;20233;-57
2022/12/11 05:56:14;;;;;;;19.37;15.27;;;2.80;99.90;;;;;;5072047;28;20244;-57
2022/12/11 05:58:43;;;;;;;21.30;15.20;;;2.70;99.90;;;;;;5071864;28;20398;-56
2022/12/11 06:01:13;;;;;;;22.80;15.27;;;2.60;99.90;;;;;;5071071;28;20209;-56
2022/12/11 06:03:40;;;;;;;20.27;15.60;;;2.40;99.90;;;;;;5071600;28;20231;-56
2022/12/11 06:06:07;;;;;;;21.17;15.33;;;2.20;99.90;;;;;;5071919;28;20201;-57
2022/12/11 06:08:35;;;;;;;22.20;14.93;;;2.10;99.90;;;;;;5071648;28;20201;-56
2022/12/11 06:11:02;;;;;;;20.23;15.03;;;2.00;99.90;;;;;;5071181;28;20269;-56
2022/12/11 06:13:29;;;;;;;22.60;15.43;;;1.90;99.90;;;;;;5071644;28;20240;-56
2022/12/11 06:15:59;;;;;;;19.73;15.27;;;1.80;99.90;;;;;;5071585;28;20215;-57
2022/12/11 06:18:27;;;;;;;21.00;15.67;;;1.80;99.90;;;;;;5072292;28;20205;-57
2022/12/11 06:20:54;;;;;;;23.23;16.37;;;1.70;99.90;;;;;;5073423;28;20212;-57
2022/12/11 06:23:21;;;;;;;22.83;16.57;;;1.60;99.90;;;;;;5075283;28;20205;-57
2022/12/11 06:25:48;;;;;;;23.60;16.17;;;1.50;99.90;;;;;;5075165;28;20209;-56
2022/12/11 06:28:14;;;;;;;23.13;16.40;;;1.40;99.90;;;;;;5075056;28;20208;-56
2022/12/11 06:30:41;;;;;;;22.80;16.27;;;1.40;99.90;;;;;;5074570;28;20296;-57
2022/12/11 06:33:08;;;;;;;25.97;18.00;;;1.30;99.90;;;;;;5075560;28;20606;-55
2022/12/11 06:35:37;;;;;;;25.33;17.43;;;1.20;99.90;;;;;;5075303;28;20236;-57
2022/12/11 06:38:03;;;;;;;26.57;18.20;;;1.30;99.90;;;;;;5075179;28;20209;-56
2022/12/11 06:40:30;;;;;;;24.23;17.13;;;1.40;99.90;;;;;;5074451;28;20608;-56
2022/12/11 06:42:57;;;;;;;30.23;20.60;;;1.50;99.90;;;;;;5074877;28;20661;-56
2022/12/11 06:45:24;;;;;;;32.17;20.67;;;1.60;99.90;;;;;;5075093;28;20225;-56
2022/12/11 06:47:50;;;;;;;31.13;20.17;;;1.70;99.90;;;;;;5075011;28;20227;-56
2022/12/11 06:50:17;;;;;;;27.07;18.17;;;1.90;99.90;;;;;;5074266;28;20575;-56
2022/12/11 06:52:45;;;;;;;26.43;18.27;;;2.00;99.90;;;;;;5074879;28;20225;-57
2022/12/11 06:55:12;;;;;;;24.23;17.53;;;2.20;99.90;;;;;;5074832;28;20228;-57
2022/12/11 06:57:39;;;;;;;22.20;15.87;;;2.30;99.90;;;;;;5074481;28;20660;-58
2022/12/11 07:00:07;;;;;;;21.97;16.00;;;2.40;99.90;;;;;;5074328;28;20201;-57
2022/12/11 07:02:34;;;;;;;22.60;15.50;;;2.50;99.90;;;;;;5074427;28;20657;-57
2022/12/11 07:05:00;;;;;;;23.07;16.77;;;2.60;99.90;;;;;;5074525;28;20229;-57
2022/12/11 07:07:28;;;;;;;23.70;16.73;;;2.70;99.90;;;;;;5074381;28;20208;-55
2022/12/11 07:09:56;;;;;;;24.17;17.27;;;2.70;99.90;;;;;;5073720;28;20215;-55
2022/12/11 07:12:23;;;;;;;21.37;15.80;;;2.80;99.90;;;;;;5074623;28;20244;-57
2022/12/11 07:14:49;;;;;;;24.33;17.50;;;2.80;99.90;;;;;;5074135;28;20225;-57
2022/12/11 07:17:16;;;;;;;29.07;19.13;;;2.70;99.90;;;;;;5074600;28;20209;-57
2022/12/11 07:19:43;;;;;;;22.90;16.63;;;2.80;99.90;;;;;;5073416;28;20209;-58
2022/12/11 07:22:10;;;;;;;22.93;16.67;;;2.90;99.90;;;;;;5074379;28;20197;-55
2022/12/11 07:24:37;;;;;;;23.90;16.40;;;2.70;99.90;;;;;;5073894;28;20728;-56
2022/12/11 07:27:05;;;;;;;22.07;15.97;;;2.60;99.90;;;;;;5074429;28;20205;-56
2022/12/11 07:29:32;;;;;;;22.07;15.90;;;2.50;99.90;;;;;;5074080;28;20209;-56
2022/12/11 07:31:59;;;;;;;24.53;18.27;;;2.30;99.90;;;;;;5073948;28;20217;-56
2022/12/11 07:34:26;;;;;;;25.90;17.83;;;2.20;99.90;;;;;;5087863;22;20286;-66
2022/12/11 07:36:52;;;;;;;25.53;18.57;;;2.10;99.90;;;;;;5065197;28;20201;-65
2022/12/11 07:39:19;;;;;;;28.50;18.87;;;1.80;99.90;;;;;;5072764;28;20668;-66
2022/12/11 07:41:46;;;;;;;25.43;18.47;;;1.70;99.90;;;;;;5073522;28;20246;-65
2022/12/11 07:44:14;;;;;;;23.53;18.17;;;1.80;99.90;;;;;;5074175;28;20224;-65
2022/12/11 07:46:41;;;;;;;23.53;17.13;;;2.00;99.90;;;;;;5073949;28;20599;-65
2022/12/11 07:49:08;;;;;;;23.47;17.23;;;2.30;99.90;;;;;;5073961;28;20224;-66
2022/12/11 07:51:37;;;;;;;23.47;17.83;;;2.60;99.90;;;;;;5073344;28;20224;-65
2022/12/11 07:54:06;;;;;;;28.60;19.20;;;2.80;99.90;;;;;;5073052;28;20225;-66
2022/12/11 07:56:33;;;;;;;23.13;17.17;;;3.10;99.90;;;;;;5073090;28;20235;-66
2022/12/11 07:59:01;;;;;;;24.60;17.43;;;3.30;99.90;;;;;;5072888;28;20211;-66
2022/12/11 08:01:31;;;;;;;33.27;22.47;;;3.50;99.90;;;;;;5072381;28;20216;-66
2022/12/11 08:03:58;;;;;;;27.60;19.50;;;3.70;99.90;;;;;;5072567;28;20316;-66
2022/12/11 08:06:27;;;;;;;31.33;20.17;;;3.80;99.90;;;;;;5072920;28;20240;-66
2022/12/11 08:08:54;;;;;;;26.17;17.63;;;3.90;99.90;;;;;;5072773;28;20204;-66
2022/12/11 08:11:21;;;;;;;22.60;16.57;;;4.00;99.90;;;;;;5072211;28;20215;-66
2022/12/11 08:13:48;;;;;;;27.83;19.20;;;4.10;99.90;;;;;;5072387;28;20224;-65
2022/12/11 08:16:16;;;;;;;24.17;17.03;;;4.10;99.90;;;;;;5072429;28;20664;-65
2022/12/11 08:18:46;;;;;;;23.30;17.17;;;4.20;99.90;;;;;;5072343;28;20205;-66
2022/12/11 08:21:16;;;;;;;22.93;16.93;;;4.20;99.90;;;;;;5072342;28;20208;-66
2022/12/11 08:23:43;;;;;;;22.93;16.63;;;4.30;99.90;;;;;;5072636;28;20205;-66
2022/12/11 08:26:12;;;;;;;23.70;16.87;;;4.30;99.90;;;;;;5072556;28;20200;-65
2022/12/11 08:28:39;;;;;;;25.93;17.30;;;4.40;99.90;;;;;;5072253;28;20231;-67
2022/12/11 08:31:08;;;;;;;24.70;19.00;;;4.50;99.90;;;;;;5071460;28;20228;-64
2022/12/11 08:33:35;;;;;;;22.53;17.60;;;4.50;99.90;;;;;;5072399;28;20245;-64
2022/12/11 08:36:04;;;;;;;22.73;17.07;;;4.50;99.90;;;;;;5072009;28;20236;-64
2022/12/11 08:38:31;;;;;;;22.97;16.77;;;4.30;99.90;;;;;;5072291;28;20213;-65
2022/12/11 08:40:58;;;;;;;21.37;15.70;;;4.30;99.90;;;;;;5071446;28;20201;-63
2022/12/11 08:43:25;;;;;;;22.00;16.33;;;4.40;99.90;;;;;;5071485;28;20197;-63
2022/12/11 08:45:52;;;;;;;22.80;17.17;;;4.40;99.90;;;;;;5071729;28;20221;-63
2022/12/11 08:48:18;;;;;;;24.23;18.27;;;4.60;99.90;;;;;;5072670;28;20212;-64
2022/12/11 08:50:45;;;;;;;23.63;16.70;;;4.70;99.90;;;;;;5071403;28;20216;-63
2022/12/11 08:53:13;;;;;;;23.13;16.27;;;4.60;99.90;;;;;;5071815;28;20224;-63
2022/12/11 08:55:40;;;;;;;19.93;15.40;;;4.40;99.90;;;;;;5072029;28;20235;-63
2022/12/11 08:58:07;;;;;;;24.00;16.53;;;4.40;99.90;;;;;;5071655;28;20231;-63
2022/12/11 09:00:34;;;;;;;25.70;17.30;;;4.40;99.90;;;;;;5071348;28;20216;-63
2022/12/11 09:03:01;;;;;;;23.67;17.33;;;4.40;99.90;;;;;;5071589;28;20699;-63
2022/12/11 09:05:28;;;;;;;24.30;16.87;;;4.50;99.90;;;;;;5071847;28;20227;-63
2022/12/11 09:07:54;;;;;;;22.93;17.23;;;4.60;99.90;;;;;;5071836;28;20221;-63
2022/12/11 09:10:22;;;;;;;29.07;18.20;;;4.70;99.90;;;;;;5070910;28;20201;-62
2022/12/11 09:12:49;;;;;;;23.77;17.20;;;4.80;99.90;;;;;;5071318;28;20225;-63
2022/12/11 09:15:16;;;;;;;20.27;15.57;;;4.90;99.90;;;;;;5071485;28;20228;-63
2022/12/11 09:17:43;;;;;;;23.73;16.83;;;4.90;99.90;;;;;;5072043;28;20211;-64
2022/12/11 09:20:10;;;;;;;20.33;15.80;;;4.70;99.90;;;;;;5071647;28;20204;-63
2022/12/11 09:22:37;;;;;;;21.70;16.23;;;4.80;99.90;;;;;;5071543;28;20212;-63
2022/12/11 09:25:04;;;;;;;20.00;15.57;;;4.90;99.90;;;;;;5071565;28;20225;-63
2022/12/11 09:27:34;;;;;;;22.13;16.33;;;5.00;99.90;;;;;;5071630;28;20204;-63
2022/12/11 09:30:01;;;;;;;85.27;61.57;;;5.10;99.90;;;;;;5070982;28;20719;-64
2022/12/11 09:32:27;;;;;;;25.40;17.43;;;5.20;99.90;;;;;;5071785;28;20605;-64
2022/12/11 09:34:55;;;;;;;20.77;15.53;;;5.10;99.90;;;;;;5071767;28;20233;-64
2022/12/11 09:37:22;;;;;;;20.77;15.70;;;4.90;99.90;;;;;;5072341;28;20205;-64
2022/12/11 09:39:49;;;;;;;20.57;14.97;;;5.00;99.90;;;;;;5072208;28;20656;-64
2022/12/11 09:42:21;;;;;;;19.83;14.53;;;5.10;99.90;;;;;;5071890;28;20296;-63
2022/12/11 09:44:52;;;;;;;22.30;16.00;;;5.20;99.90;;;;;;5071451;28;20715;-63
2022/12/11 09:47:23;;;;;;;20.90;15.07;;;5.30;99.90;;;;;;5071773;28;20217;-62
2022/12/11 09:49:54;;;;;;;20.90;14.90;;;5.40;99.90;;;;;;5070919;28;20676;-63
2022/12/11 09:52:28;;;;;;;21.47;14.77;;;5.50;99.90;;;;;;5071368;28;20228;-63
2022/12/11 09:55:01;;;;;;;18.47;13.13;;;5.60;99.90;;;;;;5072242;28;20225;-63
2022/12/11 09:57:42;;;;;;;18.03;12.40;;;5.70;99.90;;;;;;5075268;28;20224;-63
2022/12/11 10:00:22;;;;;;;18.03;12.90;;;5.70;99.90;;;;;;5074956;28;20204;-63
2022/12/11 10:03:16;;;;;;;19.30;12.33;;;5.80;99.90;;;;;;5075098;28;20699;-63
2022/12/11 10:05:49;;;;;;;17.20;12.30;;;5.80;99.90;;;;;;5075209;28;20415;-63
2022/12/11 10:08:26;;;;;;;19.63;13.30;;;5.70;99.90;;;;;;5074810;28;20227;-63
2022/12/11 10:11:10;;;;;;;15.43;12.75;;;5.30;99.90;;;;;;5067525;28;20445;-67
2022/12/11 10:13:46;;;;;;;15.23;11.97;;;5.30;99.90;;;;;;5052596;28;20225;-65
2022/12/11 10:16:29;;;;;;;16.43;12.13;;;5.10;99.90;;;;;;5053990;28;20220;-62
2022/12/11 10:18:57;;;;;;;15.83;11.97;;;4.80;99.90;;;;;;5053552;28;20683;-65
2022/12/11 10:21:26;;;;;;;29.63;22.80;;;4.50;99.90;;;;;;5052536;28;20212;-66
2022/12/11 10:23:56;;;;;;;18.93;13.73;;;4.20;99.90;;;;;;5053786;28;20213;-65
2022/12/11 10:26:24;;;;;;;17.90;13.17;;;4.20;99.90;;;;;;5053901;28;20634;-62
2022/12/11 10:28:51;;;;;;;15.13;12.00;;;4.00;99.90;;;;;;5054027;28;20217;-65
2022/12/11 10:31:24;;;;;;;17.37;12.73;;;4.00;99.90;;;;;;5052772;28;20210;-65
2022/12/11 10:33:59;;;;;;;20.83;13.97;;;3.90;99.90;;;;;;5053267;28;20229;-66
2022/12/11 10:36:29;;;;;;;19.70;14.87;;;3.80;99.90;;;;;;5053601;28;20205;-65
2022/12/11 10:38:55;;;;;;;21.07;14.67;;;3.80;99.90;;;;;;5052967;28;20251;-66
2022/12/11 10:41:29;;;;;;;18.13;13.03;;;3.80;99.90;;;;;;5052333;28;20209;-64
2022/12/11 10:43:56;;;;;;;19.27;14.53;;;4.10;99.90;;;;;;5053275;28;20202;-64
2022/12/11 10:46:26;;;;;;;16.80;13.00;;;4.30;99.90;;;;;;5053040;28;20206;-63
2022/12/11 10:48:55;;;;;;;19.23;14.50;;;4.60;99.90;;;;;;5053294;28;20209;-68
2022/12/11 10:51:25;;;;;;;19.37;14.03;;;4.80;99.90;;;;;;5051752;28;20209;-64
2022/12/11 10:53:55;;;;;;;15.43;11.67;;;5.20;99.90;;;;;;5053264;28;20233;-68
2022/12/11 10:56:27;;;;;;;19.07;13.77;;;5.30;99.90;;;;;;5052982;28;20669;-69
2022/12/11 10:58:56;;;;;;;18.53;13.47;;;5.60;99.90;;;;;;5053533;28;20205;-65
2022/12/11 11:01:27;;;;;;;17.50;12.83;;;5.80;99.90;;;;;;5053677;28;20236;-64
2022/12/11 11:03:57;;;;;;;17.07;11.93;;;6.00;99.90;;;;;;5053840;28;20210;-64
2022/12/11 11:06:25;;;;;;;17.83;12.07;;;6.00;99.90;;;;;;5053504;28;20212;-64
2022/12/11 11:08:54;;;;;;;15.90;12.27;;;5.90;99.90;;;;;;5053766;28;20233;-64
2022/12/11 11:11:26;;;;;;;17.43;12.40;;;5.90;99.90;;;;;;5053036;28;20262;-64
2022/12/11 11:14:04;;;;;;;17.70;13.43;;;5.90;99.90;;;;;;5053924;28;20214;-64
2022/12/11 11:16:36;;;;;;;17.73;13.20;;;6.10;99.90;;;;;;5053454;28;20669;-64
2022/12/11 11:19:03;;;;;;;16.03;12.23;;;6.40;99.90;;;;;;5053721;28;20218;-64
2022/12/11 11:21:30;;;;;;;15.63;11.97;;;6.60;99.90;;;;;;5052907;28;20695;-64
2022/12/11 11:23:57;;;;;;;19.20;13.37;;;6.70;99.90;;;;;;5053285;28;20734;-64
2022/12/11 11:26:24;;;;;;;15.77;11.97;;;6.70;99.90;;;;;;5053706;28;20210;-64
2022/12/11 11:28:54;;;;;;;16.33;11.93;;;6.80;99.90;;;;;;5053594;28;20205;-64
2022/12/11 11:31:30;;;;;;;17.87;13.27;;;6.90;99.90;;;;;;5052825;28;20216;-66
2022/12/11 11:34:02;;;;;;;20.60;15.47;;;6.90;99.90;;;;;;5053093;28;20229;-64
2022/12/11 11:36:30;;;;;;;15.07;12.00;;;6.70;99.90;;;;;;5053442;28;20214;-64
2022/12/11 11:39:12;;;;;;;25.60;15.77;;;6.50;99.90;;;;;;5053842;28;20209;-64
2022/12/11 11:41:46;;;;;;;37.20;24.50;;;6.20;99.90;;;;;;5053128;28;20213;-64
2022/12/11 11:44:19;;;;;;;17.87;14.20;;;6.20;99.90;;;;;;5053411;28;20226;-64
2022/12/11 11:46:53;;;;;;;16.17;12.77;;;6.30;99.90;;;;;;5052998;28;20225;-64
2022/12/11 11:49:27;;;;;;;17.03;12.37;;;6.40;99.90;;;;;;5053212;28;20216;-64
2022/12/11 11:51:59;;;;;;;15.87;12.77;;;6.20;99.90;;;;;;5052455;28;20232;-64
2022/12/11 11:54:34;;;;;;;19.80;13.70;;;6.10;99.90;;;;;;5052879;28;20241;-64
2022/12/11 11:57:12;;;;;;;17.97;13.27;;;6.00;99.90;;;;;;5053213;28;20205;-63
2022/12/11 11:59:46;;;;;;;17.80;13.60;;;6.10;99.90;;;;;;5052649;28;20220;-62
2022/12/11 12:02:15;;;;;;;20.43;13.70;;;6.10;99.90;;;;;;5053000;28;20213;-63
2022/12/11 12:04:44;;;;;;;20.97;14.67;;;6.10;99.90;;;;;;5052952;28;20226;-63
2022/12/11 12:07:28;;;;;;;22.20;15.50;;;6.20;99.90;;;;;;5052781;28;20205;-63
2022/12/11 12:10:02;;;;;;;19.40;14.23;;;6.00;99.90;;;;;;5051874;28;20221;-63
2022/12/11 12:12:37;;;;;;;19.40;13.67;;;5.90;99.90;;;;;;5052763;28;20213;-63
2022/12/11 12:15:18;;;;;;;21.80;14.27;;;6.10;99.90;;;;;;5054048;28;20228;-64
2022/12/11 12:17:52;;;;;;;17.83;13.67;;;6.10;99.90;;;;;;5051911;28;20209;-63
2022/12/11 12:20:29;;;;;;;21.63;13.93;;;6.10;99.90;;;;;;5052013;28;20201;-64
2022/12/11 12:23:14;;;;;;;22.17;15.30;;;6.20;99.90;;;;;;5052979;28;20205;-63
2022/12/11 12:25:45;;;;;;;22.37;15.17;;;6.30;99.90;;;;;;5052325;28;20232;-63
2022/12/11 12:28:24;;;;;;;22.13;15.10;;;6.20;99.90;;;;;;5052269;28;20560;-64
2022/12/11 12:31:03;;;;;;;22.17;15.23;;;5.90;99.90;;;;;;5051936;28;20209;-64
2022/12/11 12:33:42;;;;;;;24.13;15.00;;;5.70;99.90;;;;;;5052215;28;20221;-64
2022/12/11 12:36:17;;;;;;;27.30;17.60;;;5.60;99.90;;;;;;5052363;28;20221;-64
2022/12/11 12:38:53;;;;;;;22.60;15.40;;;5.50;99.90;;;;;;5052246;28;20201;-63
2022/12/11 12:41:24;;;;;;;20.53;15.07;;;5.60;99.90;;;;;;5051819;28;20258;-64
2022/12/11 12:44:04;;;;;;;21.87;15.20;;;5.60;99.90;;;;;;5052433;28;20206;-65
2022/12/11 12:46:42;;;;;;;22.23;15.00;;;5.30;99.90;;;;;;5052275;28;20205;-63
2022/12/11 12:49:15;;;;;;;20.00;14.30;;;5.10;99.90;;;;;;5052019;28;20228;-64
2022/12/11 12:51:44;;;;;;;21.30;15.00;;;5.10;99.90;;;;;;5051872;28;20315;-64
2022/12/11 12:54:15;;;;;;;24.27;14.60;;;5.00;99.90;;;;;;5051777;28;20256;-63
2022/12/11 12:56:44;;;;;;;25.73;15.83;;;4.60;99.90;;;;;;5051876;28;20230;-63
2022/12/11 12:59:20;;;;;;;23.80;16.40;;;4.30;99.90;;;;;;5051910;28;20206;-63
2022/12/11 13:01:53;;;;;;;24.13;17.17;;;4.00;99.90;;;;;;5051193;28;20730;-63
2022/12/11 13:04:35;;;;;;;26.33;17.67;;;3.80;99.90;;;;;;5051543;28;20773;-64